Time;durP1;ratioP1;P1;durP2;ratioP2;P2;SDS_P1;SDS_P2;PMS_P1;PMS_P2;Temp;Humidity;BMP_temperature;BMP_pressure;BME280_temperature;BME280_humidity;BME280_pressure;Samples;Min_cycle;Max_cycle;Signal;HPM_P1;HPM_P2
2022/08/07 00:01:00;;;;;;;1.67;0.55;;;14.50;99.80;;;;;;4954569;29;20020;-57
2022/08/07 00:03:27;;;;;;;0.50;0.40;;;14.40;99.90;;;;;;4955552;28;20020;-55
2022/08/07 00:05:53;;;;;;;0.50;0.50;;;14.30;99.90;;;;;;4955632;28;20034;-52
2022/08/07 00:08:21;;;;;;;0.60;0.50;;;14.30;99.90;;;;;;4955470;28;20051;-58
2022/08/07 00:10:48;;;;;;;0.30;0.30;;;14.20;99.90;;;;;;4954257;29;20367;-52
2022/08/07 00:13:14;;;;;;;0.63;0.63;;;14.20;99.90;;;;;;4954290;29;20023;-59
2022/08/07 00:15:39;;;;;;;1.20;0.50;;;14.10;99.90;;;;;;4954224;29;20035;-59
2022/08/07 00:18:05;;;;;;;2.65;0.65;;;14.10;99.90;;;;;;4955710;28;20041;-55
2022/08/07 00:20:31;;;;;;;0.55;0.55;;;14.20;99.90;;;;;;4954747;28;20023;-53
2022/08/07 00:22:56;;;;;;;0.40;0.40;;;14.20;99.90;;;;;;4955061;29;20027;-56
2022/08/07 00:25:23;;;;;;;0.73;0.50;;;14.10;99.90;;;;;;4954054;29;20054;-54
2022/08/07 00:27:50;;;;;;;2.50;0.60;;;14.00;99.90;;;;;;4955296;28;20023;-57
2022/08/07 00:30:16;;;;;;;0.38;0.38;;;14.00;99.90;;;;;;4953882;29;20504;-57
2022/08/07 00:32:42;;;;;;;0.52;0.50;;;14.00;99.90;;;;;;4954085;29;20113;-56
2022/08/07 00:35:08;;;;;;;0.90;0.40;;;14.00;99.90;;;;;;4954275;29;20027;-58
2022/08/07 00:37:34;;;;;;;0.90;0.50;;;14.00;99.90;;;;;;4953999;29;20118;-59
2022/08/07 00:39:59;;;;;;;7.15;0.70;;;13.90;99.90;;;;;;4954212;29;20111;-57
2022/08/07 00:42:25;;;;;;;1.13;0.52;;;13.90;99.90;;;;;;4953948;28;20066;-54
2022/08/07 00:44:51;;;;;;;1.02;0.50;;;13.90;99.90;;;;;;4953886;29;20023;-59
2022/08/07 00:47:16;;;;;;;1.08;0.60;;;13.90;99.90;;;;;;4953906;29;20482;-59
2022/08/07 00:49:42;;;;;;;1.27;0.60;;;13.80;99.90;;;;;;4954147;28;20019;-59
2022/08/07 00:52:08;;;;;;;1.10;0.65;;;13.70;99.90;;;;;;4953727;28;20038;-58
2022/08/07 00:54:34;;;;;;;3.17;0.82;;;13.70;99.90;;;;;;4953822;29;20027;-56
2022/08/07 00:57:00;;;;;;;0.65;0.60;;;13.60;99.90;;;;;;4955288;28;20032;-59
2022/08/07 00:59:26;;;;;;;2.10;0.63;;;13.50;99.90;;;;;;4954023;29;20038;-56
2022/08/07 01:01:52;;;;;;;0.55;0.55;;;13.50;99.90;;;;;;4955068;28;20102;-57
2022/08/07 01:04:19;;;;;;;1.23;0.70;;;13.40;99.90;;;;;;4954969;28;20023;-51
2022/08/07 01:06:45;;;;;;;3.95;0.70;;;13.30;99.90;;;;;;4954048;29;20360;-52
2022/08/07 01:09:11;;;;;;;0.98;0.77;;;13.20;99.90;;;;;;4953979;29;20102;-54
2022/08/07 01:11:37;;;;;;;1.13;0.60;;;13.20;99.90;;;;;;4953742;28;20486;-52
2022/08/07 01:14:03;;;;;;;3.13;0.88;;;13.10;99.90;;;;;;4953688;29;20031;-53
2022/08/07 01:16:30;;;;;;;0.77;0.68;;;13.00;99.90;;;;;;4953660;29;20042;-54
2022/08/07 01:18:56;;;;;;;1.10;0.60;;;12.90;99.90;;;;;;4953861;28;20047;-56
2022/08/07 01:21:25;;;;;;;1.33;0.70;;;12.80;99.90;;;;;;4953522;29;20031;-52
2022/08/07 01:23:52;;;;;;;2.17;0.50;;;12.90;99.90;;;;;;4953526;29;20035;-52
2022/08/07 01:26:20;;;;;;;1.08;0.60;;;12.80;99.90;;;;;;4954802;28;20390;-53
2022/08/07 01:28:47;;;;;;;1.48;0.60;;;12.80;99.90;;;;;;4953452;29;20110;-52
2022/08/07 01:31:17;;;;;;;0.57;0.45;;;12.80;99.90;;;;;;4956072;28;20031;-54
2022/08/07 01:33:44;;;;;;;1.95;0.60;;;12.70;99.90;;;;;;4956998;28;20038;-52
2022/08/07 01:36:10;;;;;;;3.30;0.70;;;12.60;99.90;;;;;;4957075;29;20395;-54
2022/08/07 01:38:37;;;;;;;1.05;0.70;;;12.60;99.90;;;;;;4956946;28;20106;-53
2022/08/07 01:41:04;;;;;;;3.95;0.65;;;12.70;99.90;;;;;;4956995;29;20023;-56
2022/08/07 01:43:30;;;;;;;0.90;0.70;;;12.60;99.90;;;;;;4956910;29;20062;-52
2022/08/07 01:45:56;;;;;;;2.25;0.63;;;12.60;99.90;;;;;;4958116;28;20047;-53
2022/08/07 01:48:23;;;;;;;1.45;1.00;;;12.60;99.90;;;;;;4958038;28;20024;-53
2022/08/07 01:50:56;;;;;;;1.10;0.65;;;12.70;99.90;;;;;;4958041;28;20027;-52
2022/08/07 01:53:24;;;;;;;0.60;0.60;;;12.60;99.90;;;;;;4958054;28;20023;-53
2022/08/07 01:55:57;;;;;;;0.63;0.60;;;12.60;99.90;;;;;;4956657;29;20027;-52
2022/08/07 01:58:28;;;;;;;2.28;0.63;;;12.70;99.90;;;;;;4956726;29;20041;-54
2022/08/07 02:00:56;;;;;;;;;;;12.60;99.90;;;;;;4957579;29;20027;-52
2022/08/07 02:03:23;;;;;;;0.60;0.50;;;12.50;99.90;;;;;;4957757;28;19994;-52
2022/08/07 02:05:58;;;;;;;0.40;0.40;;;12.50;99.90;;;;;;4957774;28;20034;-56
2022/08/07 02:08:25;;;;;;;0.60;0.50;;;12.50;99.90;;;;;;4957267;29;20031;-54
2022/08/07 02:10:53;;;;;;;2.13;0.60;;;12.50;99.90;;;;;;4956723;29;20033;-52
2022/08/07 02:13:25;;;;;;;2.83;0.80;;;12.50;99.90;;;;;;4956451;29;20035;-56
2022/08/07 02:15:53;;;;;;;1.02;0.60;;;12.60;99.90;;;;;;4957456;28;20024;-57
2022/08/07 02:18:20;;;;;;;1.13;0.73;;;12.60;99.90;;;;;;4957399;28;20023;-53
2022/08/07 02:20:50;;;;;;;0.90;0.73;;;12.50;99.90;;;;;;4956701;29;20027;-55
2022/08/07 02:23:18;;;;;;;0.60;0.50;;;12.50;99.90;;;;;;4957689;29;20473;-52
2022/08/07 02:25:45;;;;;;;0.98;0.63;;;12.50;99.90;;;;;;4956451;29;20027;-52
2022/08/07 02:28:14;;;;;;;1.02;0.50;;;12.70;99.90;;;;;;4956066;29;20023;-52
2022/08/07 02:30:41;;;;;;;1.25;0.98;;;12.80;99.90;;;;;;4956050;29;20027;-52
2022/08/07 02:33:08;;;;;;;0.88;0.60;;;12.90;99.90;;;;;;4956395;29;20494;-56
2022/08/07 02:35:36;;;;;;;0.88;0.70;;;12.90;99.90;;;;;;4957353;28;20066;-55
2022/08/07 02:38:05;;;;;;;0.52;0.52;;;12.70;99.90;;;;;;4957449;28;20071;-55
2022/08/07 02:40:32;;;;;;;0.45;0.40;;;12.70;99.90;;;;;;4956100;29;20119;-52
2022/08/07 02:42:58;;;;;;;0.80;0.60;;;12.60;99.90;;;;;;4957036;28;20039;-53
2022/08/07 02:45:26;;;;;;;0.40;0.40;;;12.60;99.90;;;;;;4956208;29;20031;-52
2022/08/07 02:47:52;;;;;;;1.88;0.63;;;12.60;99.90;;;;;;4955805;29;20031;-52
2022/08/07 02:50:18;;;;;;;3.03;0.80;;;12.60;99.90;;;;;;4956748;28;20482;-55
2022/08/07 02:52:51;;;;;;;1.38;0.68;;;12.60;99.90;;;;;;4956941;28;20438;-53
2022/08/07 02:55:28;;;;;;;1.48;0.52;;;12.50;99.90;;;;;;4956696;29;20051;-53
2022/08/07 02:58:01;;;;;;;1.00;0.60;;;12.40;99.90;;;;;;4956886;28;20047;-56
2022/08/07 03:00:28;;;;;;;0.93;0.68;;;12.30;99.90;;;;;;4956408;29;20024;-58
2022/08/07 03:02:54;;;;;;;4.63;0.70;;;12.20;99.90;;;;;;4956195;29;20027;-57
2022/08/07 03:05:20;;;;;;;1.42;0.80;;;12.20;99.90;;;;;;4955995;28;20055;-59
2022/08/07 03:07:47;;;;;;;0.43;0.43;;;12.20;99.90;;;;;;4955333;29;20035;-58
2022/08/07 03:10:13;;;;;;;1.13;0.95;;;12.20;99.90;;;;;;4955255;29;20482;-59
2022/08/07 03:12:40;;;;;;;0.68;0.60;;;12.40;99.90;;;;;;4955451;29;20110;-58
2022/08/07 03:15:07;;;;;;;0.63;0.60;;;12.50;99.90;;;;;;4957063;28;20038;-58
2022/08/07 03:17:33;;;;;;;0.80;0.50;;;12.40;99.90;;;;;;4956670;28;20027;-56
2022/08/07 03:20:00;;;;;;;1.15;0.60;;;12.40;99.90;;;;;;4955014;29;20054;-58
2022/08/07 03:22:27;;;;;;;2.60;0.68;;;12.30;99.90;;;;;;4955273;29;20122;-57
2022/08/07 03:24:53;;;;;;;1.20;0.60;;;12.30;99.90;;;;;;4956321;28;20023;-58
2022/08/07 03:27:19;;;;;;;3.13;0.60;;;12.30;99.90;;;;;;4955170;29;20142;-59
2022/08/07 03:29:48;;;;;;;0.52;0.50;;;12.20;99.90;;;;;;4955077;29;20035;-57
2022/08/07 03:32:17;;;;;;;3.30;0.73;;;12.20;99.90;;;;;;4954895;29;20027;-58
2022/08/07 03:34:45;;;;;;;1.90;0.60;;;12.20;99.90;;;;;;4956427;28;20027;-58
2022/08/07 03:37:11;;;;;;;1.88;0.52;;;12.20;99.90;;;;;;4956137;28;20027;-59
2022/08/07 03:39:38;;;;;;;0.80;0.70;;;12.20;99.90;;;;;;4956005;28;20066;-59
2022/08/07 03:42:05;;;;;;;1.73;0.60;;;12.20;99.90;;;;;;4956405;28;20059;-59
2022/08/07 03:44:33;;;;;;;2.55;0.50;;;12.20;99.90;;;;;;4955547;29;20027;-59
2022/08/07 03:46:59;;;;;;;1.60;0.77;;;12.10;99.90;;;;;;4955963;28;20102;-59
2022/08/07 03:49:25;;;;;;;0.73;0.70;;;12.00;99.90;;;;;;4955710;28;20118;-59
2022/08/07 03:51:52;;;;;;;0.73;0.55;;;11.80;99.90;;;;;;4955806;28;20050;-59
2022/08/07 03:54:18;;;;;;;0.40;0.40;;;11.80;99.90;;;;;;4954180;28;20031;-59
2022/08/07 03:56:45;;;;;;;0.50;0.50;;;11.80;99.90;;;;;;4954637;28;20030;-59
2022/08/07 03:59:13;;;;;;;0.82;0.73;;;11.70;99.90;;;;;;4956197;28;20031;-59
2022/08/07 04:01:43;;;;;;;0.75;0.75;;;11.70;99.90;;;;;;4954437;29;20549;-58
2022/08/07 04:04:09;;;;;;;1.13;0.68;;;11.60;99.90;;;;;;4955594;28;20038;-59
2022/08/07 04:06:43;;;;;;;0.50;0.50;;;11.60;99.90;;;;;;4954425;29;20114;-59
2022/08/07 04:09:10;;;;;;;0.45;0.45;;;11.60;99.90;;;;;;4955486;28;20039;-59
2022/08/07 04:11:36;;;;;;;0.90;0.38;;;11.60;99.90;;;;;;4954362;29;20034;-57
2022/08/07 04:14:03;;;;;;;0.85;0.70;;;11.60;99.90;;;;;;4955455;28;20059;-59
2022/08/07 04:16:30;;;;;;;1.60;0.60;;;11.70;99.90;;;;;;4956027;28;20106;-59
2022/08/07 04:18:56;;;;;;;0.80;0.60;;;11.70;99.90;;;;;;4955370;28;20031;-55
2022/08/07 04:21:22;;;;;;;0.75;0.70;;;11.80;99.90;;;;;;4954491;29;20030;-59
2022/08/07 04:23:48;;;;;;;0.93;0.60;;;11.90;99.90;;;;;;4954355;28;20019;-59
2022/08/07 04:26:15;;;;;;;2.38;0.57;;;12.10;99.90;;;;;;4955565;28;20046;-59
2022/08/07 04:28:41;;;;;;;0.80;0.60;;;12.20;99.90;;;;;;4955291;28;20034;-58
2022/08/07 04:31:07;;;;;;;1.10;0.60;;;12.40;99.90;;;;;;4955581;28;20079;-60
2022/08/07 04:33:38;;;;;;;1.67;0.52;;;12.60;99.90;;;;;;4954018;29;20094;-59
2022/08/07 04:36:07;;;;;;;1.65;0.75;;;12.90;99.90;;;;;;4955602;28;20034;-59
2022/08/07 04:38:36;;;;;;;0.73;0.40;;;13.10;99.90;;;;;;4955313;28;20045;-59
2022/08/07 04:41:02;;;;;;;0.80;0.55;;;13.50;99.90;;;;;;4955211;28;20023;-58
2022/08/07 04:43:38;;;;;;;2.53;0.60;;;14.00;99.90;;;;;;4955241;28;20431;-59
2022/08/07 04:46:16;;;;;;;0.50;0.50;;;14.30;99.90;;;;;;4954542;29;20102;-53
2022/08/07 04:49:10;;;;;;;1.45;0.55;;;14.80;99.90;;;;;;4953817;29;20034;-52
2022/08/07 04:51:53;;;;;;;0.80;0.40;;;15.30;99.90;;;;;;4953913;29;20498;-59
2022/08/07 04:54:32;;;;;;;0.85;0.60;;;15.70;99.90;;;;;;4953855;29;20063;-59
2022/08/07 04:57:15;;;;;;;0.85;0.40;;;16.20;99.90;;;;;;4954284;29;20051;-54
2022/08/07 04:59:45;;;;;;;;;;;16.50;99.90;;;;;;4954252;29;20063;-56
2022/08/07 05:02:24;;;;;;;0.52;0.40;;;16.80;99.90;;;;;;4954999;28;19906;-53
2022/08/07 05:05:17;;;;;;;1.95;0.50;;;17.30;99.90;;;;;;4954089;28;20490;-55
2022/08/07 05:07:59;;;;;;;0.82;0.60;;;17.60;99.90;;;;;;4959231;28;20027;-57
2022/08/07 05:10:32;;;;;;;2.40;0.50;;;18.00;99.90;;;;;;4959042;28;20027;-56
2022/08/07 05:13:08;;;;;;;0.60;0.43;;;18.40;99.90;;;;;;4957505;28;20055;-56
2022/08/07 05:15:43;;;;;;;1.05;0.50;;;18.60;99.90;;;;;;4958030;29;20033;-57
2022/08/07 05:18:24;;;;;;;1.75;0.40;;;19.10;99.90;;;;;;4958148;28;20034;-57
2022/08/07 05:20:53;;;;;;;2.08;0.63;;;19.50;99.90;;;;;;4958579;28;20019;-58
2022/08/07 05:23:38;;;;;;;1.58;0.60;;;19.80;99.90;;;;;;4957261;29;20031;-58
2022/08/07 05:26:06;;;;;;;2.20;0.50;;;20.20;99.90;;;;;;4958255;29;20120;-61
2022/08/07 05:28:34;;;;;;;2.83;0.65;;;20.50;99.90;;;;;;4958983;28;20024;-55
2022/08/07 05:31:01;;;;;;;2.70;0.60;;;20.90;99.90;;;;;;4958422;28;20106;-60
2022/08/07 05:33:29;;;;;;;0.38;0.38;;;21.30;99.90;;;;;;4957156;29;20030;-59
2022/08/07 05:35:55;;;;;;;1.75;1.02;;;21.80;99.90;;;;;;4958218;28;20055;-60
2022/08/07 05:38:22;;;;;;;2.65;0.70;;;22.00;99.30;;;;;;4957005;28;20079;-58
2022/08/07 05:40:49;;;;;;;2.10;0.50;;;22.50;98.20;;;;;;4958236;28;20027;-60
2022/08/07 05:43:15;;;;;;;0.57;0.30;;;22.90;97.30;;;;;;4956893;29;20023;-61
2022/08/07 05:45:42;;;;;;;1.08;0.60;;;23.30;96.20;;;;;;4958304;28;20030;-60
2022/08/07 05:48:08;;;;;;;1.77;0.77;;;23.70;94.40;;;;;;4958316;28;20023;-60
2022/08/07 05:50:35;;;;;;;0.50;0.50;;;23.80;93.40;;;;;;4958009;28;20053;-61
2022/08/07 05:53:02;;;;;;;1.70;0.57;;;24.00;92.60;;;;;;4958365;28;20465;-61
2022/08/07 05:55:29;;;;;;;1.08;0.70;;;24.40;92.10;;;;;;4956930;29;20478;-60
2022/08/07 05:57:56;;;;;;;1.20;0.60;;;24.80;90.20;;;;;;4957611;28;20027;-60
2022/08/07 06:00:23;;;;;;;1.23;0.63;;;25.00;88.70;;;;;;4956658;28;20110;-60
2022/08/07 06:02:52;;;;;;;0.50;0.50;;;25.30;86.10;;;;;;4958287;28;20106;-60
2022/08/07 06:05:20;;;;;;;2.90;0.65;;;25.40;85.20;;;;;;4957779;28;20052;-60
2022/08/07 06:07:46;;;;;;;1.17;0.40;;;25.20;83.40;;;;;;4956627;29;20082;-60
2022/08/07 06:10:12;;;;;;;2.13;0.50;;;25.40;82.30;;;;;;4957711;28;20019;-59
2022/08/07 06:12:38;;;;;;;1.02;0.52;;;25.70;81.20;;;;;;4956484;29;20034;-60
2022/08/07 06:15:05;;;;;;;2.45;0.60;;;25.80;79.20;;;;;;4956618;28;20450;-60
2022/08/07 06:17:31;;;;;;;1.40;0.30;;;26.20;80.40;;;;;;4955301;28;20510;-60
2022/08/07 06:19:58;;;;;;;0.90;0.50;;;26.90;80.10;;;;;;4957472;28;20019;-60
2022/08/07 06:22:24;;;;;;;2.28;0.65;;;27.20;73.90;;;;;;4956548;29;20443;-60
2022/08/07 06:24:50;;;;;;;0.45;0.40;;;27.40;76.50;;;;;;4956225;29;20555;-60
2022/08/07 06:27:23;;;;;;;1.38;0.50;;;27.90;73.30;;;;;;4957517;28;20031;-60
2022/08/07 06:29:49;;;;;;;1.75;0.70;;;27.90;71.50;;;;;;4956919;28;20031;-60
2022/08/07 06:32:15;;;;;;;1.55;0.57;;;28.10;69.20;;;;;;4956229;28;20031;-60
2022/08/07 06:34:40;;;;;;;0.70;0.43;;;27.60;73.60;;;;;;4956694;29;20023;-60
2022/08/07 06:37:06;;;;;;;0.63;0.40;;;28.40;72.90;;;;;;4957256;28;20083;-61
2022/08/07 06:39:32;;;;;;;2.50;0.75;;;29.40;70.00;;;;;;4955888;29;20124;-61
2022/08/07 06:42:03;;;;;;;1.63;0.70;;;29.20;66.50;;;;;;4956179;29;20109;-61
2022/08/07 06:44:30;;;;;;;1.48;0.43;;;29.50;68.90;;;;;;4957076;28;20038;-60
2022/08/07 06:46:56;;;;;;;1.08;0.40;;;29.90;65.90;;;;;;4957078;28;20138;-61
2022/08/07 06:49:22;;;;;;;0.77;0.50;;;30.90;69.00;;;;;;4955974;29;20122;-61
2022/08/07 06:51:48;;;;;;;1.15;0.60;;;30.70;61.90;;;;;;4955600;28;20039;-61
2022/08/07 06:54:17;;;;;;;0.38;0.38;;;31.10;62.00;;;;;;4955594;28;20034;-61
2022/08/07 06:56:45;;;;;;;0.40;0.40;;;30.80;62.00;;;;;;4956380;28;20046;-61
2022/08/07 06:59:18;;;;;;;0.93;0.60;;;30.60;62.80;;;;;;4955380;28;20513;-61
2022/08/07 07:01:45;;;;;;;0.80;0.40;;;31.30;60.00;;;;;;4955851;29;20028;-61
2022/08/07 07:04:12;;;;;;;2.30;0.50;;;31.40;60.50;;;;;;4955677;29;20031;-60
2022/08/07 07:06:38;;;;;;;0.80;0.47;;;31.40;59.90;;;;;;4956850;28;20086;-61
2022/08/07 07:09:27;;;;;;;0.90;0.40;;;31.80;59.80;;;;;;4955591;29;20038;-60
2022/08/07 07:12:07;;;;;;;0.63;0.52;;;30.80;58.80;;;;;;4956373;28;20054;-61
2022/08/07 07:15:10;;;;;;;2.92;1.92;;;30.90;58.80;;;;;;4955136;29;20121;-61
2022/08/07 07:17:40;;;;;;;1.20;0.40;;;30.80;58.90;;;;;;4956807;28;20096;-61
2022/08/07 07:20:20;;;;;;;2.63;0.47;;;30.80;58.50;;;;;;4956453;28;20038;-61
2022/08/07 07:22:47;;;;;;;1.73;0.63;;;31.10;58.80;;;;;;4956459;28;20050;-61
2022/08/07 07:25:15;;;;;;;1.48;0.88;;;32.70;57.20;;;;;;4956612;28;20032;-61
2022/08/07 07:27:52;;;;;;;2.85;0.90;;;33.60;56.30;;;;;;4956232;28;20034;-61
2022/08/07 07:30:21;;;;;;;0.77;0.47;;;34.00;54.20;;;;;;4956239;28;20418;-61
2022/08/07 07:32:48;;;;;;;1.33;0.75;;;33.10;53.90;;;;;;4955836;29;20031;-61
2022/08/07 07:35:15;;;;;;;1.25;0.60;;;33.80;54.80;;;;;;4956324;28;20474;-61
2022/08/07 07:37:42;;;;;;;1.48;0.63;;;34.10;53.30;;;;;;4954871;29;20030;-61
2022/08/07 07:40:15;;;;;;;1.00;0.50;;;33.30;52.90;;;;;;4956123;28;20030;-61
2022/08/07 07:42:43;;;;;;;2.88;1.23;;;34.20;55.30;;;;;;4956039;28;20553;-60
2022/08/07 07:45:10;;;;;;;3.08;0.90;;;35.50;53.30;;;;;;4954864;29;20122;-61
2022/08/07 07:47:41;;;;;;;1.38;0.60;;;35.60;52.20;;;;;;4954719;29;20039;-61
2022/08/07 07:50:10;;;;;;;2.92;0.50;;;35.90;50.00;;;;;;4956086;28;20088;-61
2022/08/07 07:52:37;;;;;;;6.47;0.68;;;36.30;51.10;;;;;;4956159;28;20043;-62
2022/08/07 07:55:04;;;;;;;0.68;0.50;;;37.50;48.80;;;;;;4954536;29;20031;-62
2022/08/07 07:57:32;;;;;;;0.85;0.70;;;37.10;49.80;;;;;;4955687;28;20086;-61
2022/08/07 08:00:00;;;;;;;0.70;0.57;;;37.40;47.90;;;;;;4954876;29;20058;-62
2022/08/07 08:02:28;;;;;;;1.75;0.60;;;38.10;47.50;;;;;;4955665;28;20027;-62
2022/08/07 08:04:55;;;;;;;1.13;0.70;;;38.50;48.20;;;;;;4955840;28;20363;-62
2022/08/07 08:07:23;;;;;;;0.70;0.70;;;39.60;46.10;;;;;;4954760;29;20390;-61
2022/08/07 08:09:51;;;;;;;0.95;0.80;;;39.30;47.30;;;;;;4955774;28;20027;-61
2022/08/07 08:12:17;;;;;;;1.58;0.50;;;38.80;45.20;;;;;;4954299;28;20102;-61
2022/08/07 08:14:43;;;;;;;2.42;0.65;;;37.00;47.20;;;;;;4954710;29;20079;-62
2022/08/07 08:17:11;;;;;;;1.95;0.68;;;37.10;46.50;;;;;;4954560;29;20027;-61
2022/08/07 08:19:39;;;;;;;0.45;0.45;;;36.60;46.00;;;;;;4955419;28;20035;-62
2022/08/07 08:27:41;;;;;;;1.10;0.50;;;37.00;45.00;;;;;;4955864;29;20042;-61
2022/08/07 08:30:09;;;;;;;2.97;1.40;;;36.80;45.10;;;;;;4955095;28;20071;-62
2022/08/07 08:32:40;;;;;;;1.83;0.88;;;37.60;46.00;;;;;;4953969;29;20031;-62
2022/08/07 08:35:08;;;;;;;0.65;0.65;;;37.80;44.00;;;;;;4954023;29;20066;-61
2022/08/07 08:37:36;;;;;;;0.73;0.60;;;38.70;45.20;;;;;;4955121;28;20030;-62
2022/08/07 08:40:09;;;;;;;0.82;0.68;;;40.10;43.60;;;;;;4953594;28;20384;-62
2022/08/07 08:42:53;;;;;;;0.55;0.52;;;41.10;41.70;;;;;;4954764;29;20034;-59
2022/08/07 08:45:27;;;;;;;1.33;1.10;;;38.60;41.80;;;;;;4955310;28;20027;-62
2022/08/07 08:48:02;;;;;;;1.38;0.82;;;39.70;43.90;;;;;;4954088;29;20054;-62
2022/08/07 08:50:37;;;;;;;0.75;0.70;;;40.10;43.20;;;;;;4953731;29;20063;-62
2022/08/07 08:53:30;;;;;;;0.70;0.70;;;40.60;42.40;;;;;;4955204;28;20070;-62
2022/08/07 08:56:19;;;;;;;2.53;0.88;;;41.40;42.00;;;;;;4953868;29;20024;-62
2022/08/07 08:59:08;;;;;;;0.77;0.77;;;41.90;39.60;;;;;;4955200;28;20030;-62
2022/08/07 09:02:01;;;;;;;2.30;0.65;;;40.00;40.10;;;;;;4955166;28;20023;-62
2022/08/07 09:05:04;;;;;;;1.35;0.70;;;38.90;41.10;;;;;;4954988;28;20047;-60
2022/08/07 09:07:45;;;;;;;1.15;0.57;;;38.60;42.50;;;;;;4955060;28;20027;-61
2022/08/07 09:10:16;;;;;;;0.75;0.70;;;37.40;41.30;;;;;;4954942;28;20022;-61
2022/08/07 09:12:47;;;;;;;0.88;0.63;;;38.30;42.30;;;;;;4954753;29;20023;-62
2022/08/07 09:15:37;;;;;;;0.77;0.55;;;38.70;42.30;;;;;;4954945;28;20027;-60
2022/08/07 09:18:27;;;;;;;2.25;0.70;;;39.80;41.70;;;;;;4955331;28;20035;-61
2022/08/07 09:21:11;;;;;;;2.03;0.70;;;38.70;40.30;;;;;;4955250;28;20024;-62
2022/08/07 09:27:08;;;;;;;0.98;0.60;;;40.70;41.90;;;;;;4954915;29;20042;-61
2022/08/07 09:29:49;;;;;;;1.55;0.70;;;38.90;39.40;;;;;;4954162;29;20034;-61
2022/08/07 09:32:24;;;;;;;0.70;0.70;;;38.50;41.10;;;;;;4955136;28;20102;-61
2022/08/07 09:35:07;;;;;;;0.55;0.55;;;39.10;41.20;;;;;;4953483;29;20023;-61
2022/08/07 09:38:10;;;;;;;0.52;0.50;;;38.40;41.90;;;;;;4954268;29;20030;-61
2022/08/07 09:41:01;;;;;;;6.53;0.65;;;37.80;40.00;;;;;;4955141;28;20027;-61
2022/08/07 09:43:32;;;;;;;;;;;38.90;40.20;;;;;;4955121;28;20035;-60
2022/08/07 09:46:04;;;;;;;0.50;0.50;;;35.90;41.30;;;;;;4954680;28;19968;-61
2022/08/07 09:48:50;;;;;;;3.08;0.80;;;35.90;41.80;;;;;;4954624;28;20482;-61
2022/08/07 09:52:08;;;;;;;2.72;0.50;;;37.60;41.30;;;;;;4954947;28;20039;-61
2022/08/07 09:54:45;;;;;;;0.73;0.50;;;38.50;39.00;;;;;;4948633;29;20131;-61
2022/08/07 09:57:48;;;;;;;0.60;0.60;;;38.10;39.90;;;;;;4956763;29;20469;-61
2022/08/07 10:00:19;;;;;;;0.70;0.68;;;39.50;41.10;;;;;;4957851;28;20027;-61
2022/08/07 10:02:50;;;;;;;1.27;0.70;;;39.80;40.20;;;;;;4958234;28;20035;-61
2022/08/07 10:05:54;;;;;;;1.05;0.68;;;40.30;41.10;;;;;;4957236;29;20031;-61
2022/08/07 10:08:57;;;;;;;0.85;0.68;;;40.90;38.50;;;;;;4956547;29;20019;-61
2022/08/07 10:11:44;;;;;;;1.77;1.10;;;41.60;40.70;;;;;;4956548;29;20027;-60
2022/08/07 10:14:35;;;;;;;0.73;0.70;;;39.50;38.10;;;;;;4957071;29;20035;-61
2022/08/07 10:17:21;;;;;;;0.82;0.68;;;36.90;40.00;;;;;;4956453;29;20030;-61
2022/08/07 10:20:05;;;;;;;1.63;0.77;;;38.40;41.50;;;;;;4957541;28;20031;-61
2022/08/07 10:23:10;;;;;;;0.82;0.50;;;38.70;38.70;;;;;;4957609;28;20046;-60
2022/08/07 10:25:59;;;;;;;2.35;0.80;;;33.80;40.80;;;;;;4956203;29;20027;-60
2022/08/07 10:28:49;;;;;;;3.03;0.60;;;32.80;43.60;;;;;;4957447;28;20475;-60
2022/08/07 10:31:53;;;;;;;1.23;0.55;;;32.50;44.00;;;;;;4956159;29;20019;-60
2022/08/07 10:34:31;;;;;;;0.70;0.40;;;32.00;45.00;;;;;;4957026;29;20035;-61
2022/08/07 10:37:04;;;;;;;0.57;0.50;;;33.30;44.30;;;;;;4956105;29;20055;-60
2022/08/07 10:39:38;;;;;;;1.58;0.35;;;32.20;44.00;;;;;;4956701;29;20356;-60
2022/08/07 10:42:04;;;;;;;0.65;0.50;;;31.30;44.40;;;;;;4957600;28;20171;-60
2022/08/07 10:44:50;;;;;;;0.45;0.30;;;30.90;44.90;;;;;;4957329;28;20470;-57
2022/08/07 10:47:30;;;;;;;3.63;0.40;;;30.00;45.80;;;;;;4957152;29;20035;-60
2022/08/07 10:50:12;;;;;;;0.73;0.63;;;30.50;46.70;;;;;;4956999;28;20154;-60
2022/08/07 10:52:56;;;;;;;4.22;0.70;;;31.10;49.00;;;;;;4957092;28;20055;-60
2022/08/07 10:55:41;;;;;;;1.40;1.15;;;31.20;47.30;;;;;;4955764;29;20541;-61
2022/08/07 10:58:17;;;;;;;2.88;0.55;;;31.00;46.40;;;;;;4956917;28;20031;-59
2022/08/07 11:01:07;;;;;;;1.50;0.40;;;31.00;47.00;;;;;;4955923;29;20027;-60
2022/08/07 11:03:48;;;;;;;5.03;1.10;;;31.00;45.90;;;;;;4954756;28;20035;-60
2022/08/07 11:06:31;;;;;;;2.00;0.90;;;30.10;45.10;;;;;;4956772;28;20051;-59
2022/08/07 11:08:59;;;;;;;3.33;0.90;;;29.70;50.60;;;;;;4956793;28;20054;-59
2022/08/07 11:11:35;;;;;;;2.70;0.63;;;29.60;48.90;;;;;;4955489;29;20027;-60
2022/08/07 11:14:29;;;;;;;2.55;0.70;;;29.50;47.70;;;;;;4956338;29;20078;-60
2022/08/07 11:17:20;;;;;;;2.55;0.40;;;29.70;48.10;;;;;;4956159;29;20023;-60
2022/08/07 11:20:07;;;;;;;1.08;0.60;;;28.70;47.20;;;;;;4955263;29;20054;-60
2022/08/07 11:22:58;;;;;;;0.40;0.40;;;27.30;49.40;;;;;;4956034;29;20062;-60
2022/08/07 11:25:35;;;;;;;0.65;0.50;;;26.90;50.50;;;;;;4956358;28;20038;-58
2022/08/07 11:28:15;;;;;;;1.58;0.52;;;26.60;50.20;;;;;;4956380;28;20050;-60
2022/08/07 11:30:55;;;;;;;2.00;0.40;;;26.80;50.20;;;;;;4955026;29;20019;-55
2022/08/07 11:33:42;;;;;;;1.02;0.30;;;26.30;50.80;;;;;;4956350;28;20367;-60
2022/08/07 11:36:31;;;;;;;4.13;0.63;;;26.10;51.40;;;;;;4956218;28;20027;-58
2022/08/07 11:39:31;;;;;;;2.45;0.40;;;26.00;52.00;;;;;;4956071;28;20035;-57
2022/08/07 11:42:20;;;;;;;1.13;0.43;;;26.40;51.50;;;;;;4955800;29;20035;-60
2022/08/07 11:44:51;;;;;;;0.52;0.40;;;26.50;51.00;;;;;;4956243;28;20321;-58
2022/08/07 11:47:39;;;;;;;2.60;0.50;;;26.00;51.50;;;;;;4956325;28;20023;-60
2022/08/07 11:50:26;;;;;;;0.57;0.50;;;26.20;53.70;;;;;;4955806;28;20030;-60
2022/08/07 11:53:17;;;;;;;1.23;0.45;;;26.60;52.50;;;;;;4956303;28;20031;-60
2022/08/07 11:56:04;;;;;;;2.58;0.43;;;26.90;52.10;;;;;;4956197;28;20027;-60
2022/08/07 11:59:24;;;;;;;1.75;0.50;;;27.20;51.30;;;;;;4954822;29;20087;-60
2022/08/07 12:01:58;;;;;;;0.73;0.40;;;27.30;52.20;;;;;;4953678;29;20077;-60
2022/08/07 12:04:29;;;;;;;1.30;0.50;;;27.40;51.50;;;;;;4952204;29;20070;-60
2022/08/07 12:07:19;;;;;;;4.10;0.57;;;27.40;50.70;;;;;;4955675;28;20035;-60
2022/08/07 12:09:55;;;;;;;0.98;0.80;;;27.30;50.50;;;;;;4955716;28;20024;-60
2022/08/07 12:12:31;;;;;;;4.35;1.23;;;27.20;50.50;;;;;;4955610;28;20023;-59
2022/08/07 12:15:12;;;;;;;2.47;0.55;;;27.30;50.90;;;;;;4954793;28;20036;-60
2022/08/07 12:18:19;;;;;;;1.92;0.80;;;27.40;51.30;;;;;;4955129;29;20031;-60
2022/08/07 12:20:50;;;;;;;1.45;0.50;;;27.50;51.10;;;;;;4955493;28;20039;-56
2022/08/07 12:23:25;;;;;;;1.80;0.50;;;27.40;51.10;;;;;;4956142;28;20050;-56
2022/08/07 12:26:00;;;;;;;6.70;1.33;;;27.40;51.10;;;;;;4955734;28;20023;-53
2022/08/07 12:28:35;;;;;;;5.00;0.55;;;27.40;51.30;;;;;;4955298;28;20054;-56
2022/08/07 12:31:13;;;;;;;1.33;0.55;;;27.40;50.70;;;;;;4954187;28;20030;-56
2022/08/07 12:33:40;;;;;;;0.60;0.43;;;27.40;50.90;;;;;;4955469;28;20023;-57
2022/08/07 12:36:09;;;;;;;0.55;0.40;;;27.00;50.50;;;;;;4954438;29;20035;-57
2022/08/07 12:38:38;;;;;;;4.15;0.30;;;26.40;50.40;;;;;;4953990;29;20037;-55
2022/08/07 12:41:06;;;;;;;1.08;0.60;;;26.30;51.70;;;;;;4955291;28;20109;-59
2022/08/07 12:43:33;;;;;;;2.67;0.30;;;26.60;51.20;;;;;;4955297;28;20074;-53
2022/08/07 12:46:14;;;;;;;3.10;0.82;;;26.00;50.90;;;;;;4953972;28;20031;-52
2022/08/07 12:49:02;;;;;;;0.47;0.40;;;26.00;51.40;;;;;;4954383;29;20382;-56
2022/08/07 12:51:36;;;;;;;3.30;0.60;;;26.00;51.20;;;;;;4954267;28;20454;-59
2022/08/07 12:54:16;;;;;;;0.75;0.38;;;25.90;50.60;;;;;;4954163;29;20023;-59
2022/08/07 12:56:45;;;;;;;0.40;0.40;;;25.80;52.40;;;;;;4955139;28;20031;-56
2022/08/07 12:59:17;;;;;;;2.47;0.52;;;26.00;51.60;;;;;;4955539;28;20066;-55
2022/08/07 13:02:12;;;;;;;1.80;0.52;;;26.20;51.70;;;;;;4954271;29;20027;-54
2022/08/07 13:05:01;;;;;;;2.85;0.82;;;26.40;51.80;;;;;;4955082;28;20086;-59
2022/08/07 13:07:36;;;;;;;0.52;0.52;;;26.60;51.90;;;;;;4944826;29;20386;-57
2022/08/07 13:10:26;;;;;;;0.82;0.50;;;26.60;51.90;;;;;;4955282;28;20055;-56
2022/08/07 13:13:31;;;;;;;2.53;0.70;;;26.60;50.30;;;;;;4954390;29;20066;-52
2022/08/07 13:16:16;;;;;;;0.52;0.50;;;25.80;49.90;;;;;;4953827;28;20035;-57
2022/08/07 13:19:28;;;;;;;0.75;0.47;;;25.80;51.90;;;;;;4955272;28;20019;-57
2022/08/07 13:22:16;;;;;;;1.90;0.50;;;25.80;51.00;;;;;;4936792;29;20027;-54
2022/08/07 13:24:49;;;;;;;1.27;0.50;;;25.40;52.00;;;;;;4936722;29;20538;-52
2022/08/07 13:27:26;;;;;;;0.63;0.40;;;25.40;51.50;;;;;;4956952;28;20038;-56
2022/08/07 13:30:02;;;;;;;1.48;0.43;;;25.40;51.10;;;;;;4957141;29;20023;-56